createdAt,value
2022-10-15T00:01:34.323Z,67.45
2022-10-15T00:06:26.921Z,67.39
2022-10-15T00:08:53.295Z,67.42
2022-10-15T00:11:19.617Z,67.79
2022-10-15T00:13:45.958Z,68.11
2022-10-15T00:16:12.306Z,68.00
2022-10-15T00:18:38.645Z,68.15
2022-10-15T00:21:05.001Z,68.39
2022-10-15T00:23:31.323Z,68.68
2022-10-15T00:25:57.646Z,68.79
2022-10-15T00:28:24.070Z,68.90
2022-10-15T00:30:50.324Z,69.49
2022-10-15T00:33:16.643Z,69.67
2022-10-15T00:35:42.966Z,69.51
2022-10-15T00:38:09.322Z,69.48
2022-10-15T00:40:35.652Z,69.28
2022-10-15T00:43:01.993Z,69.42
2022-10-15T00:45:28.351Z,69.53
2022-10-15T00:47:54.663Z,69.56
2022-10-15T00:50:20.985Z,69.49
2022-10-15T00:52:47.327Z,69.43
2022-10-15T00:55:13.681Z,69.71
2022-10-15T00:57:40.018Z,69.33
2022-10-15T01:00:06.335Z,69.10
2022-10-15T01:02:32.652Z,69.19
2022-10-15T01:04:58.982Z,69.62
2022-10-15T01:07:25.300Z,69.96
2022-10-15T01:09:51.642Z,70.13
2022-10-15T01:12:17.981Z,70.41
2022-10-15T01:14:44.312Z,70.94
2022-10-15T01:17:10.649Z,71.26
2022-10-15T01:19:37.029Z,71.65
2022-10-15T01:22:03.346Z,71.50
2022-10-15T01:24:29.683Z,71.64
2022-10-15T01:26:56.043Z,71.86
2022-10-15T01:29:22.391Z,71.50
2022-10-15T01:31:48.726Z,71.47
2022-10-15T01:36:41.402Z,71.57
2022-10-15T01:39:07.724Z,71.66
2022-10-15T01:41:34.115Z,71.81
2022-10-15T01:44:00.457Z,71.70
2022-10-15T01:46:26.817Z,72.23
2022-10-15T01:48:53.162Z,72.05
2022-10-15T01:51:19.505Z,71.77
2022-10-15T01:53:46.011Z,72.08
2022-10-15T01:56:12.325Z,72.25
2022-10-15T01:58:38.651Z,72.38
2022-10-15T02:01:04.994Z,72.58
2022-10-15T02:03:31.320Z,72.59
2022-10-15T02:05:57.637Z,72.31
2022-10-15T02:08:23.968Z,72.16
2022-10-15T02:10:50.347Z,72.35
2022-10-15T02:13:16.666Z,72.18
2022-10-15T02:15:42.983Z,72.05
2022-10-15T02:18:09.354Z,72.14
2022-10-15T02:20:35.699Z,71.83
2022-10-15T02:23:02.013Z,71.99
2022-10-15T02:25:28.356Z,72.09
2022-10-15T02:27:54.698Z,72.33
2022-10-15T02:30:21.045Z,72.17
2022-10-15T02:32:47.380Z,72.35
2022-10-15T02:35:13.720Z,72.22
2022-10-15T02:37:40.061Z,72.19
2022-10-15T02:40:06.397Z,72.14
2022-10-15T02:42:32.719Z,72.04
2022-10-15T02:44:59.039Z,71.81
2022-10-15T02:49:51.719Z,71.70
2022-10-15T02:52:18.061Z,71.54
2022-10-15T02:54:44.418Z,71.53
2022-10-15T02:57:10.736Z,71.64
2022-10-15T02:59:37.053Z,71.78
2022-10-15T03:02:03.400Z,71.76
2022-10-15T03:04:29.740Z,72.03
2022-10-15T03:06:56.057Z,71.98
2022-10-15T03:09:22.395Z,71.89
2022-10-15T03:11:48.744Z,71.79
2022-10-15T03:14:15.052Z,71.81
2022-10-15T03:16:41.377Z,71.77
2022-10-15T03:19:07.721Z,71.96
2022-10-15T03:21:34.063Z,71.92
2022-10-15T03:24:00.393Z,72.21
2022-10-15T03:26:26.744Z,72.14
2022-10-15T03:28:53.109Z,72.04
2022-10-15T03:31:19.391Z,71.95
2022-10-15T03:33:45.701Z,71.79
2022-10-15T03:36:12.048Z,71.77
2022-10-15T03:38:38.384Z,72.04
2022-10-15T03:41:04.707Z,72.00
2022-10-15T03:43:31.024Z,71.88
2022-10-15T03:45:57.427Z,71.81
2022-10-15T03:48:23.761Z,71.68
2022-10-15T03:50:50.103Z,71.31
2022-10-15T03:53:16.418Z,71.33
2022-10-15T03:55:42.763Z,71.41
2022-10-15T03:58:09.111Z,71.30
2022-10-15T04:00:35.449Z,71.47
2022-10-15T04:03:01.767Z,71.69
2022-10-15T04:05:28.089Z,71.76
2022-10-15T04:07:54.467Z,71.96
2022-10-15T04:10:20.814Z,71.88
2022-10-15T04:12:47.157Z,71.70
2022-10-15T04:15:13.504Z,71.56
2022-10-15T04:17:39.895Z,71.39
2022-10-15T04:20:06.163Z,71.22
2022-10-15T04:22:32.515Z,71.17
2022-10-15T04:24:58.842Z,71.20
2022-10-15T04:27:25.187Z,71.14
2022-10-15T04:29:51.509Z,71.22
2022-10-15T04:32:17.850Z,71.25
2022-10-15T04:34:44.193Z,71.32
2022-10-15T04:37:10.509Z,71.23
2022-10-15T04:39:36.854Z,71.44
2022-10-15T04:42:03.189Z,71.59
2022-10-15T04:44:29.573Z,71.58
2022-10-15T04:46:55.914Z,71.63
2022-10-15T04:49:22.233Z,71.62
2022-10-15T04:51:48.556Z,71.53
2022-10-15T04:54:14.966Z,71.53
2022-10-15T04:56:41.234Z,71.36
2022-10-15T04:59:07.585Z,71.31
2022-10-15T05:01:33.904Z,71.25
2022-10-15T05:04:00.242Z,71.50
2022-10-15T05:06:26.556Z,71.47
2022-10-15T05:08:52.881Z,71.48
2022-10-15T05:11:19.218Z,71.47
2022-10-15T05:13:45.542Z,71.46
2022-10-15T05:16:11.878Z,71.20
2022-10-15T05:18:38.215Z,71.07
2022-10-15T05:21:04.534Z,71.15
2022-10-15T05:23:30.863Z,71.28
2022-10-15T05:25:57.185Z,71.53
2022-10-15T05:28:23.561Z,71.77
2022-10-15T05:30:49.832Z,71.45
2022-10-15T05:33:16.177Z,71.00
2022-10-15T05:35:42.490Z,71.32
2022-10-15T05:38:08.814Z,71.24
2022-10-15T05:40:35.158Z,71.04
2022-10-15T05:43:01.517Z,70.46
2022-10-15T05:45:27.823Z,69.79
2022-10-15T05:47:54.228Z,69.80
2022-10-15T05:50:20.600Z,69.97
2022-10-15T05:52:46.890Z,69.48
2022-10-15T05:55:13.215Z,69.63
2022-10-15T05:57:39.597Z,69.40
2022-10-15T06:00:05.959Z,69.55
2022-10-15T06:02:32.399Z,69.50
2022-10-15T06:04:58.652Z,69.05
2022-10-15T06:07:25.368Z,69.50
2022-10-15T06:09:51.385Z,69.83
2022-10-15T06:12:17.709Z,69.95
2022-10-15T06:14:44.047Z,69.12
2022-10-15T06:17:10.465Z,68.79
2022-10-15T06:19:36.803Z,68.41
2022-10-15T06:22:03.146Z,68.11
2022-10-15T06:24:29.468Z,67.24
2022-10-15T06:26:55.797Z,67.33
2022-10-15T06:29:22.134Z,67.18
2022-10-15T06:31:48.476Z,66.86
2022-10-15T06:34:14.800Z,65.70
2022-10-15T06:36:41.179Z,66.50
2022-10-15T06:39:07.493Z,66.41
2022-10-15T06:41:33.838Z,65.86
2022-10-15T06:44:00.243Z,65.13
2022-10-15T06:46:26.539Z,64.63
2022-10-15T06:48:52.859Z,64.98
2022-10-15T06:51:19.212Z,64.62
2022-10-15T06:53:45.525Z,63.42
2022-10-15T06:56:11.866Z,60.63
2022-10-15T06:58:38.182Z,58.49
2022-10-15T07:01:04.517Z,56.17
2022-10-15T07:03:30.887Z,55.01
2022-10-15T07:05:57.229Z,54.28
2022-10-15T07:08:23.546Z,53.00
2022-10-15T07:10:49.880Z,53.33
2022-10-15T07:13:16.222Z,52.00
2022-10-15T07:15:42.580Z,51.91
2022-10-15T07:18:08.921Z,53.79
2022-10-15T07:20:35.263Z,54.36
2022-10-15T07:23:01.626Z,53.72
2022-10-15T07:25:27.949Z,52.65
2022-10-15T07:27:54.292Z,52.67
2022-10-15T07:30:20.635Z,50.35
2022-10-15T07:32:46.973Z,49.70
2022-10-15T07:35:13.314Z,50.20
2022-10-15T07:37:39.629Z,49.16
2022-10-15T07:40:05.971Z,48.31
2022-10-15T07:42:32.332Z,48.16
2022-10-15T07:44:58.651Z,47.29
2022-10-15T07:47:25.363Z,48.48
2022-10-15T07:49:51.363Z,47.86
2022-10-15T07:52:17.697Z,46.34
2022-10-15T07:54:44.045Z,45.75
2022-10-15T07:57:10.383Z,47.87
2022-10-15T07:59:36.767Z,48.42
2022-10-15T08:02:03.113Z,50.00
2022-10-15T08:04:29.449Z,48.18
2022-10-15T08:06:55.792Z,49.49
2022-10-15T08:09:22.127Z,50.12
2022-10-15T08:11:48.464Z,50.47
2022-10-15T08:14:14.841Z,49.70
2022-10-15T08:16:41.164Z,47.21
2022-10-15T08:19:07.511Z,45.75
2022-10-15T08:21:33.882Z,46.22
2022-10-15T08:24:00.204Z,45.33
2022-10-15T08:26:26.549Z,44.98
2022-10-15T08:28:52.931Z,43.50
2022-10-15T08:31:19.194Z,43.57
2022-10-15T08:33:45.545Z,43.39
2022-10-15T08:36:11.920Z,41.42
2022-10-15T08:38:38.235Z,41.45
2022-10-15T08:41:04.577Z,41.43
2022-10-15T08:43:30.918Z,41.57
2022-10-15T08:45:57.261Z,41.11
2022-10-15T08:48:23.600Z,40.77
2022-10-15T08:50:51.770Z,40.73
2022-10-15T08:53:16.333Z,42.78
2022-10-15T08:55:42.676Z,42.67
2022-10-15T08:58:08.988Z,43.08
2022-10-15T09:00:35.317Z,43.28
2022-10-15T09:03:01.709Z,42.02
2022-10-15T09:05:27.976Z,41.69
2022-10-15T09:07:54.683Z,41.40
2022-10-15T09:10:20.721Z,42.72
2022-10-15T09:12:47.040Z,42.80
2022-10-15T09:15:13.400Z,41.57
2022-10-15T09:17:39.741Z,41.35
2022-10-15T09:20:06.061Z,40.55
2022-10-15T09:22:32.384Z,40.13
2022-10-15T09:24:58.732Z,40.15
2022-10-15T09:27:25.464Z,41.02
2022-10-15T09:29:51.446Z,42.02
2022-10-15T09:32:17.765Z,41.69
2022-10-15T09:34:44.107Z,39.81
2022-10-15T09:37:10.524Z,38.37
2022-10-15T09:39:36.872Z,40.22
2022-10-15T09:42:03.215Z,40.15
2022-10-15T09:44:29.620Z,38.11
2022-10-15T09:46:55.950Z,37.19
2022-10-15T09:49:22.289Z,37.40
2022-10-15T09:51:48.641Z,35.72
2022-10-15T09:54:14.988Z,35.52
2022-10-15T09:56:41.301Z,35.63
2022-10-15T09:59:09.593Z,35.61
2022-10-15T10:01:33.947Z,36.05
2022-10-15T10:04:00.278Z,35.67
2022-10-15T10:06:26.619Z,36.09
2022-10-15T10:08:52.965Z,35.52
2022-10-15T10:11:19.328Z,35.43
2022-10-15T10:13:45.646Z,34.13
2022-10-15T10:16:11.982Z,33.96
2022-10-15T10:18:38.365Z,34.02
2022-10-15T10:21:04.697Z,34.25
2022-10-15T10:23:31.041Z,34.78
2022-10-15T10:25:57.393Z,34.40
2022-10-15T10:28:23.790Z,33.49
2022-10-15T10:30:50.082Z,32.74
2022-10-15T10:33:16.407Z,32.82
2022-10-15T10:35:42.738Z,32.59
2022-10-15T10:38:09.059Z,32.64
2022-10-15T10:40:35.376Z,31.40
2022-10-15T10:43:01.728Z,31.88
2022-10-15T10:45:28.043Z,32.69
2022-10-15T10:47:54.374Z,33.86
2022-10-15T10:50:20.691Z,35.32
2022-10-15T10:52:47.041Z,35.65
2022-10-15T10:55:13.354Z,36.83
2022-10-15T10:57:39.703Z,36.53
2022-10-15T11:00:06.037Z,36.52
2022-10-15T11:02:32.400Z,36.24
2022-10-15T11:04:58.737Z,37.35
2022-10-15T11:07:25.523Z,38.46
2022-10-15T11:09:55.249Z,38.65
2022-10-15T11:12:17.762Z,37.33
2022-10-15T11:14:44.110Z,36.73
2022-10-15T11:17:10.441Z,36.37
2022-10-15T11:22:03.114Z,36.33
2022-10-15T11:24:33.553Z,37.66
2022-10-15T11:27:11.773Z,38.18
2022-10-15T11:29:22.194Z,38.17
2022-10-15T11:32:01.757Z,38.20
2022-10-15T11:34:14.871Z,38.09
2022-10-15T11:36:41.195Z,38.49
2022-10-15T11:39:07.541Z,38.63
2022-10-15T11:41:33.861Z,37.27
2022-10-15T11:44:00.179Z,36.48
2022-10-15T11:46:26.540Z,35.80
2022-10-15T11:48:52.879Z,36.33
2022-10-15T11:51:19.212Z,36.86
2022-10-15T11:53:45.672Z,37.92
2022-10-15T11:56:11.999Z,38.14
2022-10-15T11:58:38.319Z,37.77
2022-10-15T12:01:04.670Z,38.56
2022-10-15T12:03:30.992Z,39.43
2022-10-15T12:05:57.358Z,39.63
2022-10-15T12:08:23.689Z,39.65
2022-10-15T12:10:50.019Z,39.45
2022-10-15T12:13:16.343Z,39.92
2022-10-15T12:15:42.681Z,40.38
2022-10-15T12:18:09.014Z,40.14
2022-10-15T12:20:35.340Z,39.82
2022-10-15T12:23:01.699Z,38.72
2022-10-15T12:25:28.026Z,38.97
2022-10-15T12:27:54.362Z,39.50
2022-10-15T12:30:20.678Z,39.84
2022-10-15T12:32:47.001Z,40.33
2022-10-15T12:35:13.378Z,41.05
2022-10-15T12:37:39.659Z,40.95
2022-10-15T12:40:05.984Z,41.04
2022-10-15T12:42:32.346Z,40.96
2022-10-15T12:44:58.688Z,40.99
2022-10-15T12:47:25.339Z,41.42
2022-10-15T12:49:51.404Z,41.91
2022-10-15T12:52:17.725Z,42.30
2022-10-15T12:54:44.075Z,41.05
2022-10-15T12:57:10.391Z,40.29
2022-10-15T12:59:36.764Z,41.19
2022-10-15T13:02:03.113Z,41.75
2022-10-15T13:04:29.430Z,40.66
2022-10-15T13:06:55.789Z,39.64
2022-10-15T13:09:22.117Z,39.42
2022-10-15T13:11:48.542Z,39.87
2022-10-15T13:14:14.853Z,40.76
2022-10-15T13:16:41.188Z,41.36
2022-10-15T13:19:07.530Z,41.51
2022-10-15T13:21:33.848Z,41.34
2022-10-15T13:24:00.210Z,41.71
2022-10-15T13:26:26.561Z,41.79
2022-10-15T13:28:53.090Z,41.65
2022-10-15T13:31:19.242Z,41.52
2022-10-15T13:33:45.562Z,41.63
2022-10-15T13:36:11.890Z,41.07
2022-10-15T13:38:38.214Z,41.19
2022-10-15T13:41:04.570Z,41.76
2022-10-15T13:43:30.915Z,41.99
2022-10-15T13:45:57.246Z,41.60
2022-10-15T13:48:23.604Z,41.96
2022-10-15T13:50:49.945Z,41.99
2022-10-15T13:53:16.264Z,42.28
2022-10-15T13:55:42.641Z,42.75
2022-10-15T13:58:08.984Z,42.98
2022-10-15T14:00:35.385Z,42.97
2022-10-15T14:03:01.672Z,43.10
2022-10-15T14:05:27.990Z,43.30
2022-10-15T14:07:54.340Z,43.37
2022-10-15T14:10:20.686Z,43.33
2022-10-15T14:12:46.996Z,43.34
2022-10-15T14:15:13.358Z,43.26
2022-10-15T14:17:39.736Z,43.68
2022-10-15T14:20:26.230Z,43.76
2022-10-15T14:22:32.424Z,43.25
2022-10-15T14:24:58.762Z,43.45
2022-10-15T14:27:25.405Z,43.73
2022-10-15T14:29:51.450Z,43.77
2022-10-15T14:32:17.777Z,44.00
2022-10-15T14:34:44.127Z,43.74
2022-10-15T14:37:10.494Z,44.00
2022-10-15T14:39:36.845Z,44.11
2022-10-15T14:42:03.167Z,44.05
2022-10-15T14:44:29.546Z,44.38
2022-10-15T14:46:55.897Z,44.85
2022-10-15T14:49:22.233Z,45.12
2022-10-15T14:51:48.581Z,45.42
2022-10-15T14:54:14.902Z,45.45
2022-10-15T14:56:41.250Z,45.67
2022-10-15T14:59:07.605Z,45.38
2022-10-15T15:01:33.990Z,45.31
2022-10-15T15:04:00.292Z,45.43
2022-10-15T15:06:26.619Z,45.69
2022-10-15T15:08:52.965Z,45.76
2022-10-15T15:11:19.314Z,45.97
2022-10-15T15:13:45.629Z,45.91
2022-10-15T15:16:11.954Z,46.24
2022-10-15T15:18:38.309Z,46.45
2022-10-15T15:21:04.655Z,46.92
2022-10-15T15:23:30.991Z,46.99
2022-10-15T15:25:57.321Z,47.00
2022-10-15T15:28:23.726Z,47.04
2022-10-15T15:30:50.001Z,47.01
2022-10-15T15:33:16.348Z,47.43
2022-10-15T15:35:42.692Z,47.99
2022-10-15T15:38:09.030Z,48.10
2022-10-15T15:40:35.360Z,48.37
2022-10-15T15:43:01.704Z,48.56
2022-10-15T15:45:28.026Z,48.99
2022-10-15T15:47:54.349Z,49.22
2022-10-15T15:50:20.676Z,49.33
2022-10-15T15:52:47.010Z,49.93
2022-10-15T15:55:13.342Z,49.98
2022-10-15T15:57:39.662Z,50.27
2022-10-15T16:00:05.993Z,50.42
2022-10-15T16:02:32.347Z,50.33
2022-10-15T16:04:58.685Z,50.93
2022-10-15T16:07:28.347Z,51.33
2022-10-15T16:09:51.333Z,51.75
2022-10-15T16:12:17.709Z,52.45
2022-10-15T16:14:44.051Z,52.22
2022-10-15T16:17:10.385Z,52.50
2022-10-15T16:19:36.708Z,52.39
2022-10-15T16:22:03.024Z,52.76
2022-10-15T16:24:29.436Z,52.46
2022-10-15T16:26:55.755Z,53.00
2022-10-15T16:29:22.137Z,53.14
2022-10-15T16:31:48.475Z,53.55
2022-10-15T16:34:14.868Z,53.65
2022-10-15T16:36:41.242Z,54.42
2022-10-15T16:39:07.586Z,53.50
2022-10-15T16:41:33.951Z,53.54
2022-10-15T16:44:00.278Z,53.36
2022-10-15T16:46:26.664Z,53.80
2022-10-15T16:48:52.999Z,54.19
2022-10-15T16:51:19.363Z,54.37
2022-10-15T16:53:45.733Z,54.88
2022-10-15T16:56:12.091Z,55.04
2022-10-15T16:58:38.417Z,55.42
2022-10-15T17:01:04.742Z,55.60
2022-10-15T17:03:31.088Z,55.91
2022-10-15T17:05:57.423Z,55.95
2022-10-15T17:08:26.600Z,56.20
2022-10-15T17:10:50.094Z,56.24
2022-10-15T17:13:16.439Z,56.12
2022-10-15T17:15:42.798Z,56.50
2022-10-15T17:18:09.180Z,56.44
2022-10-15T17:20:35.505Z,56.48
2022-10-15T17:23:01.863Z,56.66
2022-10-15T17:25:28.184Z,56.44
2022-10-15T17:27:54.514Z,56.38
2022-10-15T17:30:20.874Z,56.74
2022-10-15T17:32:47.274Z,57.00
2022-10-15T17:35:13.611Z,57.25
2022-10-15T17:37:40.061Z,57.24
2022-10-15T17:40:06.370Z,57.16
2022-10-15T17:42:32.647Z,57.34
2022-10-15T17:44:58.965Z,57.65
2022-10-15T17:47:25.555Z,57.77
2022-10-15T17:49:51.622Z,57.99
2022-10-15T17:52:18.047Z,58.28
2022-10-15T17:54:44.386Z,58.32
2022-10-15T17:57:10.733Z,58.08
2022-10-15T17:59:37.054Z,58.00
2022-10-15T18:02:03.442Z,58.78
2022-10-15T18:04:29.764Z,58.90
2022-10-15T18:06:56.119Z,58.72
2022-10-15T18:09:22.435Z,59.27
2022-10-15T18:11:48.784Z,59.86
2022-10-15T18:14:15.143Z,60.10
2022-10-15T18:16:41.462Z,60.47
2022-10-15T18:19:07.998Z,60.48
2022-10-15T18:21:34.326Z,60.24
2022-10-15T18:24:00.675Z,59.91
2022-10-15T18:26:27.000Z,59.78
2022-10-15T18:28:53.463Z,60.26
2022-10-15T18:31:19.689Z,60.55
2022-10-15T18:33:46.005Z,60.80
2022-10-15T18:36:12.394Z,60.97
2022-10-15T18:38:38.741Z,61.41
2022-10-15T18:41:05.062Z,61.75
2022-10-15T18:43:31.387Z,62.33
2022-10-15T18:45:57.742Z,62.95
2022-10-15T18:48:24.067Z,62.96
2022-10-15T18:50:50.418Z,62.77
2022-10-15T18:53:16.751Z,62.80
2022-10-15T18:55:43.104Z,62.12
2022-10-15T18:58:09.445Z,61.93
2022-10-15T19:00:35.809Z,61.79
2022-10-15T19:03:02.156Z,61.44
2022-10-15T19:05:28.485Z,61.55
2022-10-15T19:07:54.814Z,61.74
2022-10-15T19:10:21.157Z,61.78
2022-10-15T19:12:47.479Z,61.68
2022-10-15T19:15:13.843Z,61.94
2022-10-15T19:17:40.171Z,62.02
2022-10-15T19:20:06.493Z,61.93
2022-10-15T19:22:32.862Z,61.70
2022-10-15T19:24:59.188Z,61.92
2022-10-15T19:27:25.764Z,62.09
2022-10-15T19:29:51.855Z,62.20
2022-10-15T19:32:18.192Z,62.30
2022-10-15T19:34:44.539Z,62.56
2022-10-15T19:37:10.897Z,63.15
2022-10-15T19:39:37.226Z,63.55
2022-10-15T19:42:03.558Z,63.94
2022-10-15T19:44:29.885Z,64.26
2022-10-15T19:46:56.289Z,64.39
2022-10-15T19:49:22.611Z,64.59
2022-10-15T19:51:48.951Z,64.93
2022-10-15T19:54:15.323Z,65.25
2022-10-15T19:56:41.613Z,65.34
2022-10-15T19:59:07.954Z,65.44
2022-10-15T20:01:34.354Z,65.29
2022-10-15T20:04:04.796Z,65.43
2022-10-15T20:06:26.985Z,65.89
2022-10-15T20:08:53.326Z,66.10
2022-10-15T20:11:19.686Z,66.14
2022-10-15T20:13:46.028Z,66.51
2022-10-15T20:16:12.373Z,66.90
2022-10-15T20:18:38.744Z,66.94
2022-10-15T20:21:05.090Z,66.59
2022-10-15T20:23:31.434Z,66.38
2022-10-15T20:25:57.768Z,66.09
2022-10-15T20:28:24.147Z,66.16
2022-10-15T20:30:50.524Z,66.47
2022-10-15T20:33:16.787Z,66.20
2022-10-15T20:35:43.133Z,66.50
2022-10-15T20:38:09.486Z,66.13
2022-10-15T20:40:35.841Z,65.81
2022-10-15T20:43:02.219Z,65.48
2022-10-15T20:45:28.563Z,65.78
2022-10-15T20:47:54.906Z,65.55
2022-10-15T20:50:21.234Z,65.66
2022-10-15T20:52:47.563Z,65.65
2022-10-15T20:55:13.895Z,65.69
2022-10-15T20:57:40.275Z,65.82
2022-10-15T21:00:06.594Z,65.76
2022-10-15T21:02:32.966Z,65.91
2022-10-15T21:04:59.292Z,65.71
2022-10-15T21:07:25.624Z,65.62
2022-10-15T21:09:51.946Z,65.71
2022-10-15T21:12:18.304Z,65.78
2022-10-15T21:14:44.642Z,66.08
2022-10-15T21:17:10.956Z,66.39
2022-10-15T21:19:37.336Z,66.43
2022-10-15T21:22:03.663Z,66.30
2022-10-15T21:24:30.004Z,66.49
2022-10-15T21:26:56.387Z,66.58
2022-10-15T21:29:22.707Z,66.83
2022-10-15T21:31:49.052Z,67.07
2022-10-15T21:34:15.436Z,67.01
2022-10-15T21:36:41.764Z,67.16
2022-10-15T21:39:08.128Z,67.81
2022-10-15T21:41:34.470Z,68.06
2022-10-15T21:44:00.809Z,68.28
2022-10-15T21:46:27.126Z,68.12
2022-10-15T21:48:53.486Z,67.88
2022-10-15T21:51:19.814Z,67.84
2022-10-15T21:53:46.151Z,67.99
2022-10-15T21:56:12.508Z,67.86
2022-10-15T21:58:38.855Z,67.51
2022-10-15T22:01:05.271Z,67.55
2022-10-15T22:03:31.558Z,67.55
2022-10-15T22:05:57.894Z,67.60
2022-10-15T22:08:24.286Z,67.67
2022-10-15T22:10:50.624Z,67.85
2022-10-15T22:13:16.948Z,67.62
2022-10-15T22:15:43.290Z,67.66
2022-10-15T22:18:09.636Z,67.89
2022-10-15T22:20:36.049Z,68.10
2022-10-15T22:23:02.341Z,68.00
2022-10-15T22:25:28.665Z,67.88
2022-10-15T22:27:55.049Z,67.85
2022-10-15T22:30:21.364Z,68.35
2022-10-15T22:32:47.710Z,68.21
2022-10-15T22:35:14.086Z,67.93
2022-10-15T22:37:40.431Z,67.78
2022-10-15T22:40:06.749Z,67.67
2022-10-15T22:42:33.129Z,67.95
2022-10-15T22:44:59.466Z,67.55
2022-10-15T22:47:25.820Z,67.99
2022-10-15T22:49:52.273Z,68.38
2022-10-15T22:52:18.519Z,68.68
2022-10-15T22:54:44.843Z,68.83
2022-10-15T22:57:11.196Z,69.02
2022-10-15T22:59:37.536Z,68.98
2022-10-15T23:02:03.928Z,69.09
2022-10-15T23:04:30.268Z,69.25
2022-10-15T23:06:56.612Z,69.47
2022-10-15T23:09:22.948Z,69.71
2022-10-15T23:11:49.279Z,70.25
2022-10-15T23:14:15.624Z,70.92
2022-10-15T23:16:41.998Z,71.45
2022-10-15T23:19:08.339Z,71.51
2022-10-15T23:21:34.662Z,71.56
2022-10-15T23:24:01.036Z,71.75
2022-10-15T23:26:30.393Z,71.74
2022-10-15T23:28:53.830Z,71.72
2022-10-15T23:31:20.044Z,71.59
2022-10-15T23:33:46.386Z,71.46
2022-10-15T23:36:12.708Z,71.37
2022-10-15T23:38:39.051Z,71.51
2022-10-15T23:41:05.375Z,71.75
2022-10-15T23:43:31.752Z,71.85
2022-10-15T23:45:58.098Z,71.84
2022-10-15T23:48:24.418Z,71.56
2022-10-15T23:50:50.782Z,71.37
2022-10-15T23:53:17.128Z,71.34
2022-10-15T23:55:43.469Z,71.90
2022-10-15T23:58:09.853Z,72.23
